createdAt,value
2023-04-09T00:01:09.060Z,6.78
2023-04-09T00:02:11.491Z,5.40
2023-04-09T00:03:14.016Z,3.50
2023-04-09T00:04:16.544Z,3.92
2023-04-09T00:05:19.071Z,2.90
2023-04-09T00:06:21.534Z,3.28
2023-04-09T00:07:23.956Z,3.75
2023-04-09T00:08:26.760Z,3.80
2023-04-09T00:09:29.215Z,3.25
2023-04-09T00:10:31.636Z,3.90
2023-04-09T00:11:34.060Z,3.95
2023-04-09T00:12:37.836Z,4.00
2023-04-09T00:13:40.437Z,4.25
2023-04-09T00:14:42.870Z,3.70
2023-04-09T00:15:46.522Z,3.97
2023-04-09T00:16:48.996Z,4.05
2023-04-09T00:17:52.388Z,2.90
2023-04-09T00:18:55.086Z,2.53
2023-04-09T00:19:57.710Z,3.22
2023-04-09T00:21:00.847Z,3.85
2023-04-09T00:22:03.626Z,3.97
2023-04-09T00:23:06.352Z,2.85
2023-04-09T00:24:09.189Z,4.13
2023-04-09T00:25:11.668Z,3.45
2023-04-09T00:26:14.183Z,4.72
2023-04-09T00:27:17.648Z,4.25
2023-04-09T00:28:20.156Z,2.95
2023-04-09T00:29:22.832Z,3.10
2023-04-09T00:30:31.425Z,2.83
2023-04-09T00:31:34.586Z,3.65
2023-04-09T00:32:37.646Z,3.10
2023-04-09T00:33:44.934Z,3.80
2023-04-09T00:34:47.727Z,3.83
2023-04-09T00:35:50.362Z,3.78
2023-04-09T00:36:52.981Z,3.45
2023-04-09T00:37:55.427Z,3.35
2023-04-09T00:38:58.873Z,3.97
2023-04-09T00:40:01.538Z,4.15
2023-04-09T00:41:04.244Z,4.28
2023-04-09T00:42:06.751Z,3.25
2023-04-09T00:43:09.520Z,3.05
2023-04-09T00:44:12.044Z,2.92
2023-04-09T00:45:14.636Z,4.22
2023-04-09T00:46:18.110Z,3.78
2023-04-09T00:47:21.010Z,4.03
2023-04-09T00:48:23.758Z,4.35
2023-04-09T00:49:26.633Z,3.80
2023-04-09T00:50:29.022Z,5.55
2023-04-09T00:51:31.747Z,4.75
2023-04-09T00:52:34.422Z,26.48
2023-04-09T00:53:37.009Z,70.10
2023-04-09T00:54:39.679Z,21.90
2023-04-09T00:55:42.155Z,12.95
2023-04-09T00:56:45.482Z,10.77
2023-04-09T00:57:48.058Z,39.08
2023-04-09T00:58:51.158Z,48.45
2023-04-09T00:59:53.980Z,31.13
2023-04-09T01:00:56.730Z,33.17
2023-04-09T01:01:59.396Z,37.17
2023-04-09T01:03:04.769Z,20.52
2023-04-09T01:04:07.388Z,16.00
2023-04-09T01:05:11.339Z,12.95
2023-04-09T01:06:38.644Z,11.25
2023-04-09T01:08:03.864Z,9.52
2023-04-09T01:09:28.556Z,7.65
2023-04-09T01:10:42.724Z,7.40
2023-04-09T01:12:08.763Z,7.45
2023-04-09T01:13:20.369Z,7.90
2023-04-09T01:14:59.942Z,5.75
2023-04-09T01:16:03.825Z,6.15
2023-04-09T01:17:35.260Z,8.23
2023-04-09T01:18:52.933Z,7.53
2023-04-09T01:20:13.118Z,7.18
2023-04-09T01:21:20.514Z,8.23
2023-04-09T01:22:53.641Z,5.22
2023-04-09T01:24:13.393Z,6.05
2023-04-09T01:25:34.777Z,5.07
2023-04-09T01:26:55.498Z,15.65
2023-04-09T01:28:24.184Z,7.82
2023-04-09T01:29:32.096Z,55.47
2023-04-09T01:30:35.790Z,21.65
2023-04-09T01:31:40.083Z,48.30
2023-04-09T01:32:45.263Z,67.15
2023-04-09T01:33:48.268Z,68.82
2023-04-09T01:34:51.535Z,63.78
2023-04-09T01:35:55.189Z,33.70
2023-04-09T01:37:02.690Z,25.88
2023-04-09T01:38:05.458Z,18.33
2023-04-09T01:39:08.674Z,15.73
2023-04-09T01:40:11.565Z,13.63
2023-04-09T01:41:18.027Z,11.75
2023-04-09T01:42:21.547Z,10.68
2023-04-09T01:43:25.836Z,11.68
2023-04-09T01:44:29.076Z,11.13
2023-04-09T01:45:32.663Z,11.27
2023-04-09T01:46:36.777Z,9.82
2023-04-09T01:47:40.053Z,11.40
2023-04-09T01:48:43.849Z,9.57
2023-04-09T01:49:46.580Z,11.85
2023-04-09T01:50:50.523Z,9.80
2023-04-09T01:51:53.213Z,7.10
2023-04-09T01:52:56.239Z,19.73
2023-04-09T01:53:59.424Z,14.35
2023-04-09T01:55:02.353Z,15.43
2023-04-09T01:56:06.168Z,12.95
2023-04-09T01:57:08.651Z,23.27
2023-04-09T01:58:13.924Z,36.58
2023-04-09T01:59:16.576Z,38.30
2023-04-09T02:00:19.366Z,46.65
2023-04-09T02:01:32.599Z,68.53
2023-04-09T02:02:49.043Z,31.92
2023-04-09T02:03:56.617Z,21.63
2023-04-09T02:05:03.375Z,17.55
2023-04-09T02:06:17.023Z,13.82
2023-04-09T02:07:31.588Z,12.90
2023-04-09T02:08:35.585Z,13.48
2023-04-09T02:09:42.355Z,13.13
2023-04-09T02:10:53.609Z,10.55
2023-04-09T02:11:58.786Z,11.18
2023-04-09T02:13:03.262Z,10.50
2023-04-09T02:14:11.174Z,10.95
2023-04-09T02:15:14.508Z,8.98
2023-04-09T02:16:17.918Z,8.88
2023-04-09T02:17:20.940Z,10.93
2023-04-09T02:18:25.772Z,9.13
2023-04-09T02:19:41.497Z,11.90
2023-04-09T02:20:43.964Z,10.80
2023-04-09T02:21:47.226Z,9.57
2023-04-09T02:22:49.773Z,10.52
2023-04-09T02:23:52.571Z,9.70
2023-04-09T02:24:55.128Z,8.68
2023-04-09T02:25:57.739Z,13.80
2023-04-09T02:27:00.363Z,12.93
2023-04-09T02:28:05.541Z,18.13
2023-04-09T02:29:08.107Z,15.75
2023-04-09T02:30:11.156Z,29.20
2023-04-09T02:31:14.326Z,31.88
2023-04-09T02:46:41.315Z,10.20
2023-04-09T02:50:22.852Z,7.90
2023-04-09T02:51:28.352Z,8.63
2023-04-09T02:52:31.102Z,8.98
2023-04-09T02:53:33.910Z,9.65
2023-04-09T02:54:36.555Z,8.27
2023-04-09T02:55:39.071Z,8.27
2023-04-09T02:56:43.755Z,8.25
2023-04-09T02:57:48.492Z,7.57
2023-04-09T02:58:54.377Z,42.63
2023-04-09T02:59:57.607Z,59.63
2023-04-09T03:01:00.325Z,78.82
2023-04-09T03:02:02.891Z,105.80
2023-04-09T03:03:05.684Z,133.88
2023-04-09T03:04:08.411Z,76.45
2023-04-09T03:05:11.098Z,119.03
2023-04-09T03:06:13.712Z,110.82
2023-04-09T03:07:16.281Z,85.05
2023-04-09T03:08:18.790Z,75.05
2023-04-09T03:09:21.234Z,65.95
2023-04-09T03:10:24.627Z,59.08
2023-04-09T03:11:27.173Z,53.85
2023-04-09T03:12:29.640Z,52.75
2023-04-09T03:13:32.125Z,48.50
2023-04-09T03:14:35.317Z,44.45
2023-04-09T03:15:38.071Z,40.83
2023-04-09T03:16:40.505Z,36.35
2023-04-09T03:17:43.050Z,36.33
2023-04-09T03:18:45.676Z,31.88
2023-04-09T03:19:48.620Z,30.58
2023-04-09T03:20:51.930Z,27.52
2023-04-09T03:21:54.492Z,28.80
2023-04-09T03:23:00.595Z,27.27
2023-04-09T03:24:14.284Z,26.02
2023-04-09T03:25:19.433Z,24.95
2023-04-09T03:26:22.284Z,21.77
2023-04-09T03:27:25.952Z,25.90
2023-04-09T03:28:32.053Z,29.30
2023-04-09T03:29:34.665Z,24.35
2023-04-09T03:30:37.313Z,28.10
2023-04-09T03:31:42.028Z,27.42
2023-04-09T03:32:44.676Z,22.50
2023-04-09T03:33:49.020Z,24.23
2023-04-09T03:34:53.679Z,23.27
2023-04-09T03:35:58.133Z,25.15
2023-04-09T03:37:17.534Z,23.85
2023-04-09T03:38:20.555Z,22.55
2023-04-09T03:39:22.977Z,20.27
2023-04-09T03:40:25.529Z,23.60
2023-04-09T03:41:27.939Z,22.17
2023-04-09T03:42:32.016Z,23.13
2023-04-09T03:43:34.829Z,23.77
2023-04-09T03:44:37.226Z,18.15
2023-04-09T03:45:45.629Z,29.25
2023-04-09T03:46:57.095Z,23.52
2023-04-09T03:48:00.855Z,19.55
2023-04-09T03:49:03.361Z,20.02
2023-04-09T03:50:16.687Z,19.65
2023-04-09T03:51:28.506Z,19.17
2023-04-09T03:52:34.004Z,17.80
2023-04-09T03:53:41.952Z,19.73
2023-04-09T03:54:45.300Z,30.90
2023-04-09T03:55:52.690Z,18.00
2023-04-09T03:56:59.771Z,19.10
2023-04-09T03:58:02.202Z,20.42
2023-04-09T03:59:07.828Z,18.58
2023-04-09T04:00:17.199Z,22.42
2023-04-09T04:01:38.919Z,23.13
2023-04-09T04:02:41.871Z,21.10
2023-04-09T04:03:45.502Z,19.80
2023-04-09T04:05:04.009Z,18.83
2023-04-09T04:06:12.317Z,17.60
2023-04-09T04:07:37.516Z,21.67
2023-04-09T04:08:44.984Z,18.25
2023-04-09T04:09:47.869Z,18.50
2023-04-09T04:10:52.799Z,21.92
2023-04-09T04:11:58.999Z,20.75
2023-04-09T04:13:15.316Z,18.85
2023-04-09T04:14:31.644Z,17.38
2023-04-09T04:16:47.962Z,15.32
2023-04-09T04:17:54.802Z,19.92
2023-04-09T04:19:09.680Z,17.17
2023-04-09T04:20:18.222Z,16.75
2023-04-09T04:21:33.287Z,139.63
2023-04-09T04:22:37.697Z,81.90
2023-04-09T04:23:40.984Z,81.38
2023-04-09T04:24:56.228Z,74.03
2023-04-09T04:25:59.357Z,56.50
2023-04-09T04:27:06.842Z,44.65
2023-04-09T04:28:11.142Z,36.10
2023-04-09T04:29:16.930Z,31.67
2023-04-09T04:30:42.699Z,33.03
2023-04-09T04:31:45.750Z,28.02
2023-04-09T04:32:50.786Z,31.05
2023-04-09T04:33:53.169Z,30.15
2023-04-09T04:34:55.687Z,29.75
2023-04-09T04:36:09.227Z,28.27
2023-04-09T04:37:15.968Z,30.67
2023-04-09T04:38:18.834Z,32.65
2023-04-09T04:39:21.219Z,30.90
2023-04-09T04:40:43.920Z,31.17
2023-04-09T04:41:46.425Z,29.45
2023-04-09T04:42:53.953Z,28.45
2023-04-09T04:43:57.300Z,28.95
2023-04-09T04:45:00.907Z,27.10
2023-04-09T04:46:20.726Z,29.23
2023-04-09T04:47:23.860Z,30.13
2023-04-09T04:48:28.088Z,28.95
2023-04-09T04:49:31.715Z,26.08
2023-04-09T04:50:35.673Z,29.60
2023-04-09T04:51:42.620Z,24.83
2023-04-09T04:52:48.308Z,26.50
2023-04-09T04:53:50.774Z,24.80
2023-04-09T04:54:54.050Z,26.88
2023-04-09T04:55:59.024Z,26.95
2023-04-09T04:57:03.426Z,27.17
2023-04-09T04:58:12.935Z,25.48
2023-04-09T04:59:22.986Z,23.35
2023-04-09T05:00:33.767Z,28.00
2023-04-09T05:01:38.584Z,27.33
2023-04-09T05:02:44.703Z,22.60
2023-04-09T05:03:47.638Z,24.08
2023-04-09T05:05:04.177Z,25.08
2023-04-09T05:06:15.220Z,25.70
2023-04-09T05:07:20.416Z,25.17
2023-04-09T05:08:29.180Z,24.63
2023-04-09T05:09:32.958Z,23.50
2023-04-09T05:10:42.883Z,23.95
2023-04-09T05:11:46.377Z,22.02
2023-04-09T05:12:54.018Z,22.90
2023-04-09T05:14:04.930Z,22.13
2023-04-09T05:15:08.295Z,26.30
2023-04-09T05:16:19.670Z,21.88
2023-04-09T05:17:28.972Z,20.15
2023-04-09T05:18:31.486Z,23.88
2023-04-09T05:19:33.865Z,20.58
2023-04-09T05:20:38.690Z,24.58
2023-04-09T05:21:47.166Z,20.73
2023-04-09T05:22:55.439Z,23.20
2023-04-09T05:24:04.737Z,23.60
2023-04-09T05:25:09.280Z,23.08
2023-04-09T05:26:14.340Z,21.70
2023-04-09T05:27:27.640Z,21.92
2023-04-09T05:28:35.023Z,23.23
2023-04-09T05:29:46.808Z,20.70
2023-04-09T05:30:50.391Z,18.90
2023-04-09T05:31:53.989Z,22.70
2023-04-09T05:33:02.601Z,22.55
2023-04-09T05:34:06.602Z,21.60
2023-04-09T05:35:13.705Z,22.70
2023-04-09T05:36:19.795Z,20.55
2023-04-09T05:37:22.213Z,18.75
2023-04-09T05:38:27.296Z,21.90
2023-04-09T05:39:33.477Z,20.67
2023-04-09T05:40:37.289Z,19.50
2023-04-09T05:41:46.593Z,19.35
2023-04-09T05:43:07.986Z,21.83
2023-04-09T05:44:15.328Z,22.70
2023-04-09T05:45:18.605Z,21.10
2023-04-09T05:46:27.451Z,20.95
2023-04-09T05:47:30.496Z,24.15
2023-04-09T05:48:38.295Z,21.48
2023-04-09T05:49:41.592Z,18.98
2023-04-09T05:50:55.570Z,20.30
2023-04-09T05:52:01.362Z,17.92
2023-04-09T05:53:07.481Z,19.67
2023-04-09T05:54:14.918Z,18.65
2023-04-09T05:55:17.724Z,18.67
2023-04-09T05:56:27.098Z,17.67
2023-04-09T05:57:32.694Z,20.65
2023-04-09T05:58:38.485Z,17.55
2023-04-09T05:59:41.146Z,20.27
2023-04-09T06:00:43.678Z,20.42
2023-04-09T06:01:46.445Z,19.65
2023-04-09T06:02:49.073Z,19.92
2023-04-09T06:03:52.860Z,19.02
2023-04-09T06:04:57.377Z,18.20
2023-04-09T06:06:00.661Z,20.20
2023-04-09T06:07:03.550Z,18.02
2023-04-09T06:08:06.195Z,19.02
2023-04-09T06:09:08.817Z,18.98
2023-04-09T06:10:13.317Z,19.25
2023-04-09T06:11:15.959Z,17.80
2023-04-09T06:12:18.629Z,20.75
2023-04-09T06:13:21.477Z,17.40
2023-04-09T06:14:24.129Z,17.48
2023-04-09T06:15:27.601Z,17.33
2023-04-09T06:16:30.555Z,20.15
2023-04-09T06:17:33.222Z,19.63
2023-04-09T06:18:36.845Z,17.00
2023-04-09T06:19:39.796Z,19.75
2023-04-09T06:20:45.342Z,17.27
2023-04-09T06:21:47.873Z,18.55
2023-04-09T06:22:50.335Z,18.60
2023-04-09T06:23:53.890Z,17.70
2023-04-09T06:24:57.064Z,17.20
2023-04-09T06:26:00.908Z,17.85
2023-04-09T06:27:03.304Z,16.55
2023-04-09T06:28:05.737Z,18.40
2023-04-09T06:29:08.063Z,18.83
2023-04-09T06:30:11.745Z,16.92
2023-04-09T06:31:15.551Z,15.15
2023-04-09T06:32:18.289Z,20.10
2023-04-09T06:33:21.051Z,16.27
2023-04-09T06:34:23.480Z,17.85
2023-04-09T06:35:26.277Z,16.83
2023-04-09T06:36:28.677Z,17.20
2023-04-09T06:37:31.099Z,18.45
2023-04-09T06:38:33.399Z,18.17
2023-04-09T06:39:37.409Z,17.00
2023-04-09T06:40:41.466Z,18.00
2023-04-09T06:41:44.275Z,16.42
2023-04-09T06:42:58.934Z,17.83
2023-04-09T06:44:12.055Z,16.65
2023-04-09T06:45:14.420Z,17.42
2023-04-09T06:46:20.073Z,15.80
2023-04-09T06:47:22.745Z,17.25
2023-04-09T06:48:25.298Z,16.10
2023-04-09T06:49:27.686Z,17.15
2023-04-09T06:50:30.339Z,18.08
2023-04-09T06:51:32.838Z,16.02
2023-04-09T06:52:35.390Z,15.32
2023-04-09T06:53:40.623Z,17.67
2023-04-09T06:54:44.064Z,15.98
2023-04-09T06:55:46.490Z,13.18
2023-04-09T06:56:48.855Z,10.20
2023-04-09T06:57:51.632Z,28.70
2023-04-09T06:58:54.305Z,43.95
2023-04-09T06:59:56.792Z,37.17
2023-04-09T07:01:00.128Z,37.20
2023-04-09T07:02:03.139Z,27.85
2023-04-09T07:03:08.151Z,23.67
2023-04-09T07:04:14.130Z,18.50
2023-04-09T07:05:16.708Z,17.02
2023-04-09T07:06:19.140Z,15.07
2023-04-09T07:07:23.750Z,16.52
2023-04-09T07:08:28.566Z,16.38
2023-04-09T07:09:31.561Z,15.07
2023-04-09T07:10:34.055Z,16.30
2023-04-09T07:11:36.905Z,16.13
2023-04-09T07:12:39.313Z,17.35
2023-04-09T07:13:41.777Z,16.95
2023-04-09T07:14:44.229Z,18.00
2023-04-09T07:15:46.651Z,17.40
2023-04-09T07:16:49.096Z,19.45
2023-04-09T07:17:51.714Z,17.58
2023-04-09T07:18:54.265Z,15.93
2023-04-09T07:19:56.787Z,18.75
2023-04-09T07:20:59.457Z,18.27
2023-04-09T07:22:01.962Z,15.25
2023-04-09T07:23:04.514Z,20.85
2023-04-09T07:24:07.403Z,16.02
2023-04-09T07:25:10.489Z,16.40
2023-04-09T07:26:12.912Z,15.23
2023-04-09T07:27:16.568Z,14.38
2023-04-09T07:28:21.116Z,14.50
2023-04-09T07:29:24.136Z,19.33
2023-04-09T07:33:39.364Z,19.17
2023-04-09T07:34:44.877Z,21.08
2023-04-09T07:35:47.472Z,21.73
2023-04-09T07:36:50.222Z,14.00
2023-04-09T07:37:52.599Z,15.85
2023-04-09T07:38:56.581Z,14.80
2023-04-09T07:39:59.346Z,15.52
2023-04-09T07:41:01.990Z,14.98
2023-04-09T07:42:06.099Z,16.27
2023-04-09T07:43:08.573Z,15.68
2023-04-09T07:44:11.283Z,13.75
2023-04-09T07:45:13.826Z,15.98
2023-04-09T07:46:22.949Z,14.43
2023-04-09T07:47:26.177Z,14.48
2023-04-09T07:48:28.949Z,14.68
2023-04-09T07:49:31.518Z,18.13
2023-04-09T07:52:06.803Z,14.90
2023-04-09T07:53:09.369Z,15.95
2023-04-09T07:54:11.834Z,14.73
2023-04-09T07:55:16.268Z,16.05
2023-04-09T07:56:19.617Z,15.65
2023-04-09T07:57:22.084Z,14.82
2023-04-09T07:58:25.026Z,15.43
2023-04-09T07:59:28.058Z,14.77
2023-04-09T08:00:30.684Z,16.20
2023-04-09T08:01:33.124Z,16.52
2023-04-09T08:02:36.043Z,15.93
2023-04-09T08:03:38.637Z,13.93
2023-04-09T08:04:41.294Z,14.25
2023-04-09T08:05:45.867Z,14.15
2023-04-09T08:06:50.799Z,15.98
2023-04-09T08:07:53.388Z,14.15
2023-04-09T08:08:56.787Z,19.60
2023-04-09T08:09:59.390Z,16.30
2023-04-09T08:12:39.769Z,15.10
2023-04-09T08:13:42.064Z,17.48
2023-04-09T08:14:44.359Z,17.77
2023-04-09T08:15:46.766Z,14.48
2023-04-09T08:16:50.534Z,15.95
2023-04-09T08:17:53.474Z,14.63
2023-04-09T08:18:56.624Z,14.35
2023-04-09T08:20:00.735Z,14.30
2023-04-09T08:28:14.721Z,14.93
2023-04-09T08:29:29.060Z,12.73
2023-04-09T08:30:50.298Z,14.05
2023-04-09T08:31:52.819Z,16.33
2023-04-09T08:32:55.586Z,17.15
2023-04-09T08:33:58.204Z,28.70
2023-04-09T08:35:00.883Z,9.95
2023-04-09T08:36:07.854Z,12.15
2023-04-09T08:37:10.401Z,9.20
2023-04-09T08:38:15.848Z,8.75
2023-04-09T08:39:21.461Z,10.70
2023-04-09T08:43:15.601Z,9.68
2023-04-09T08:44:18.622Z,12.32
2023-04-09T08:45:21.021Z,11.77
2023-04-09T08:46:24.377Z,14.05
2023-04-09T08:47:27.745Z,14.55
2023-04-09T08:48:30.231Z,14.25
2023-04-09T08:49:33.503Z,15.98
2023-04-09T08:50:36.775Z,11.88
2023-04-09T08:51:40.319Z,17.38
2023-04-09T08:52:45.989Z,16.35
2023-04-09T08:53:53.560Z,14.55
2023-04-09T08:54:56.267Z,13.63
2023-04-09T08:56:00.442Z,14.48
2023-04-09T08:57:07.516Z,10.55
2023-04-09T08:58:10.854Z,20.58
2023-04-09T08:59:21.005Z,15.30
2023-04-09T09:00:24.338Z,12.95
2023-04-09T09:01:29.041Z,13.75
2023-04-09T09:02:32.233Z,12.38
2023-04-09T09:03:59.368Z,15.23
2023-04-09T09:05:01.964Z,12.50
2023-04-09T09:06:04.454Z,12.63
2023-04-09T09:07:09.883Z,15.98
2023-04-09T09:08:33.290Z,12.38
2023-04-09T09:09:58.730Z,15.40
2023-04-09T09:14:19.452Z,13.63
2023-04-09T09:15:27.872Z,17.10
2023-04-09T09:16:31.274Z,15.52
2023-04-09T09:17:52.802Z,14.88
2023-04-09T09:18:58.634Z,13.45
2023-04-09T09:20:19.943Z,11.50
2023-04-09T09:21:22.928Z,13.55
2023-04-09T09:22:25.904Z,12.48
2023-04-09T09:23:37.891Z,12.15
2023-04-09T09:24:50.404Z,12.68
2023-04-09T09:25:53.036Z,11.32
2023-04-09T09:26:55.815Z,12.35
2023-04-09T09:28:11.515Z,15.52
2023-04-09T09:29:13.935Z,14.25
2023-04-09T09:30:25.010Z,11.45
2023-04-09T09:31:27.571Z,10.68
2023-04-09T09:32:30.730Z,16.20
2023-04-09T09:33:33.970Z,14.05
2023-04-09T09:34:36.517Z,11.10
2023-04-09T09:35:49.434Z,12.65
2023-04-09T09:36:51.897Z,12.15
2023-04-09T09:38:04.895Z,12.90
2023-04-09T09:39:12.026Z,9.77
2023-04-09T09:46:31.771Z,8.93
2023-04-09T09:47:35.464Z,11.10
2023-04-09T09:48:39.367Z,13.18
2023-04-09T09:49:41.927Z,11.38
2023-04-09T09:50:46.612Z,13.30
2023-04-09T09:51:49.066Z,10.88
2023-04-09T09:52:57.108Z,42.10
2023-04-09T09:53:59.929Z,25.05
2023-04-09T09:55:05.344Z,19.77
2023-04-09T09:56:15.731Z,12.80
2023-04-09T09:57:20.035Z,11.57
2023-04-09T09:58:32.050Z,11.13
2023-04-09T09:59:40.411Z,13.55
2023-04-09T10:00:44.781Z,14.27
2023-04-09T10:01:51.817Z,27.50
2023-04-09T10:03:03.145Z,18.63
2023-04-09T10:05:09.183Z,17.58
2023-04-09T10:06:13.061Z,13.82
2023-04-09T10:07:16.160Z,17.30
2023-04-09T10:08:19.423Z,12.45
2023-04-09T10:09:23.285Z,14.45
2023-04-09T10:10:27.224Z,14.68
2023-04-09T10:11:31.804Z,13.68
2023-04-09T10:12:34.660Z,15.00
2023-04-09T10:13:43.536Z,12.40
2023-04-09T10:14:46.414Z,17.27
2023-04-09T10:15:49.437Z,17.50
2023-04-09T10:16:52.275Z,14.02
2023-04-09T10:17:56.300Z,13.15
2023-04-09T10:19:02.110Z,13.25
2023-04-09T10:20:41.787Z,11.23
2023-04-09T10:22:05.634Z,18.05
2023-04-09T10:23:17.336Z,15.43
2023-04-09T10:24:20.195Z,17.95
2023-04-09T10:25:22.614Z,13.43
2023-04-09T10:26:30.860Z,15.05
2023-04-09T10:27:33.520Z,11.63
2023-04-09T10:28:40.840Z,14.70
2023-04-09T10:29:45.692Z,12.73
2023-04-09T10:30:48.202Z,10.38
2023-04-09T10:32:06.770Z,13.82
2023-04-09T10:33:14.384Z,14.27
2023-04-09T10:34:19.247Z,12.32
2023-04-09T10:35:28.165Z,13.05
2023-04-09T10:36:31.493Z,12.40
2023-04-09T10:37:36.059Z,10.30
2023-04-09T10:38:41.475Z,11.02
2023-04-09T10:39:48.042Z,12.52
2023-04-09T10:40:53.461Z,13.88
2023-04-09T10:42:00.100Z,14.07
2023-04-09T10:43:03.913Z,9.73
2023-04-09T10:44:07.373Z,13.02
2023-04-09T10:45:15.029Z,11.63
2023-04-09T10:46:34.486Z,12.00
2023-04-09T10:47:39.702Z,10.63
2023-04-09T10:48:43.741Z,11.07
2023-04-09T10:49:46.157Z,10.80
2023-04-09T10:50:54.383Z,11.75
2023-04-09T10:52:02.918Z,11.30
2023-04-09T10:53:05.255Z,9.65
2023-04-09T10:54:34.721Z,10.43
2023-04-09T10:55:38.375Z,12.55
2023-04-09T10:56:40.885Z,12.98
2023-04-09T10:57:43.399Z,13.73
2023-04-09T10:58:45.709Z,11.60
2023-04-09T10:59:52.138Z,10.48
2023-04-09T11:00:54.577Z,13.40
2023-04-09T11:01:56.982Z,11.35
2023-04-09T11:03:13.465Z,11.50
2023-04-09T11:04:20.422Z,11.52
2023-04-09T11:05:34.121Z,10.85
2023-04-09T11:06:40.247Z,10.63
2023-04-09T11:07:51.855Z,9.38
2023-04-09T11:08:56.925Z,10.23
2023-04-09T11:09:59.478Z,10.63
2023-04-09T11:11:02.657Z,10.00
2023-04-09T11:12:05.285Z,9.80
2023-04-09T11:13:17.722Z,12.02
2023-04-09T11:14:20.590Z,10.15
2023-04-09T11:15:22.980Z,12.07
2023-04-09T11:16:27.902Z,7.80
2023-04-09T11:17:36.687Z,11.20
2023-04-09T11:18:39.730Z,14.07
2023-04-09T11:19:42.072Z,10.55
2023-04-09T11:20:44.815Z,10.10
2023-04-09T11:21:48.347Z,10.35
2023-04-09T11:22:53.201Z,8.50
2023-04-09T11:23:55.667Z,10.45
2023-04-09T11:24:57.877Z,12.00
2023-04-09T11:26:01.779Z,11.05
2023-04-09T11:27:04.432Z,10.27
2023-04-09T11:28:08.081Z,10.85
2023-04-09T11:29:10.653Z,9.48
2023-04-09T11:30:13.174Z,11.60
2023-04-09T11:31:16.855Z,9.98
2023-04-09T11:32:19.353Z,9.82
2023-04-09T11:33:22.404Z,9.63
2023-04-09T11:34:28.450Z,9.23
2023-04-09T11:35:33.860Z,8.88
2023-04-09T11:36:36.491Z,8.23
2023-04-09T11:37:41.209Z,8.98
2023-04-09T11:38:43.651Z,8.43
2023-04-09T11:39:51.533Z,9.77
2023-04-09T11:40:57.995Z,8.55
2023-04-09T11:42:00.799Z,9.45
2023-04-09T11:43:03.450Z,8.50
2023-04-09T11:44:06.114Z,9.00
2023-04-09T11:45:10.517Z,8.43
2023-04-09T11:46:12.973Z,9.32
2023-04-09T11:47:18.635Z,10.93
2023-04-09T11:48:23.306Z,8.20
2023-04-09T11:49:25.964Z,9.35
2023-04-09T11:50:28.578Z,10.50
2023-04-09T11:51:32.629Z,12.60
2023-04-09T11:52:38.444Z,9.88
2023-04-09T11:53:41.053Z,9.05
2023-04-09T11:54:49.311Z,9.20
2023-04-09T11:55:54.123Z,8.55
2023-04-09T11:56:58.651Z,7.93
2023-04-09T11:58:01.679Z,7.72
2023-04-09T11:59:04.444Z,6.15
2023-04-09T12:00:14.325Z,6.05
2023-04-09T12:01:17.261Z,4.72
2023-04-09T12:02:20.148Z,6.82
2023-04-09T12:03:31.346Z,5.13
2023-04-09T12:04:34.738Z,6.03
2023-04-09T12:05:39.099Z,7.63
2023-04-09T12:06:43.399Z,7.75
2023-04-09T12:07:55.645Z,7.05
2023-04-09T12:08:59.669Z,4.15
2023-04-09T12:10:10.421Z,5.50
2023-04-09T12:11:15.477Z,3.47
2023-04-09T12:12:24.029Z,3.95
2023-04-09T12:13:34.004Z,4.90
2023-04-09T12:14:36.659Z,6.57
2023-04-09T12:15:41.798Z,3.83
2023-04-09T12:16:45.646Z,4.75
2023-04-09T12:17:50.441Z,2.88
2023-04-09T12:18:55.907Z,3.47
2023-04-09T12:19:58.410Z,3.10
2023-04-09T12:21:02.590Z,2.83
2023-04-09T12:22:05.706Z,3.85
2023-04-09T12:23:10.117Z,4.28
2023-04-09T12:24:14.930Z,4.80
2023-04-09T12:25:17.576Z,2.83
2023-04-09T12:26:19.971Z,3.67
2023-04-09T12:27:22.529Z,3.25
2023-04-09T12:28:25.909Z,2.53
2023-04-09T12:29:29.875Z,4.57
2023-04-09T12:30:33.666Z,2.63
2023-04-09T12:31:36.781Z,4.55
2023-04-09T12:32:39.520Z,2.30
2023-04-09T12:33:42.773Z,3.42
2023-04-09T12:34:47.433Z,4.20
2023-04-09T12:35:50.061Z,4.63
2023-04-09T12:36:53.660Z,3.08
2023-04-09T12:37:56.227Z,2.40
2023-04-09T12:38:58.728Z,3.92
2023-04-09T12:40:04.627Z,3.35
2023-04-09T12:41:07.214Z,3.25
2023-04-09T12:42:10.022Z,2.15
2023-04-09T12:43:12.632Z,2.50
2023-04-09T12:44:15.226Z,3.00
2023-04-09T12:45:19.486Z,2.70
2023-04-09T12:46:22.152Z,2.85
2023-04-09T12:47:25.719Z,3.63
2023-04-09T12:48:28.535Z,2.67
2023-04-09T12:50:56.854Z,3.47
2023-04-09T12:52:00.495Z,3.70
2023-04-09T12:53:03.401Z,4.40
2023-04-09T12:54:06.026Z,3.38
2023-04-09T12:55:09.744Z,4.18
2023-04-09T12:56:12.566Z,6.75
2023-04-09T12:57:15.544Z,7.65
2023-04-09T12:58:18.103Z,3.50
2023-04-09T12:59:20.784Z,5.22
2023-04-09T13:00:23.272Z,4.05
2023-04-09T13:01:26.040Z,4.32
2023-04-09T13:02:28.761Z,3.92
2023-04-09T13:03:31.524Z,7.20
2023-04-09T13:04:34.359Z,6.32
2023-04-09T13:05:36.977Z,6.03
2023-04-09T13:06:39.447Z,4.38
2023-04-09T13:07:43.495Z,5.03
2023-04-09T13:08:46.158Z,11.38
2023-04-09T13:09:52.344Z,6.07
2023-04-09T13:10:54.841Z,3.83
2023-04-09T13:11:57.323Z,5.43
2023-04-09T13:12:59.808Z,4.60
2023-04-09T13:14:02.183Z,3.97
2023-04-09T13:15:05.076Z,3.60
2023-04-09T13:16:08.078Z,5.10
2023-04-09T13:17:10.978Z,6.05
2023-04-09T13:18:14.009Z,5.18
2023-04-09T13:19:17.114Z,5.13
2023-04-09T13:22:03.242Z,5.03
2023-04-09T13:23:08.960Z,3.60
2023-04-09T13:24:14.152Z,3.42
2023-04-09T13:25:16.918Z,5.18
2023-04-09T13:26:19.701Z,4.30
2023-04-09T13:27:22.218Z,4.20
2023-04-09T13:28:24.742Z,4.65
2023-04-09T13:29:29.223Z,4.47
2023-04-09T13:30:31.989Z,4.00
2023-04-09T13:31:36.394Z,3.22
2023-04-09T13:32:38.972Z,4.72
2023-04-09T13:33:41.438Z,4.65
2023-04-09T13:34:43.934Z,6.03
2023-04-09T13:35:46.777Z,3.55
2023-04-09T13:36:49.430Z,4.03
2023-04-09T13:37:52.062Z,3.42
2023-04-09T13:38:54.929Z,4.47
2023-04-09T13:39:57.650Z,5.43
2023-04-09T13:41:01.006Z,4.20
2023-04-09T13:42:12.586Z,3.95
2023-04-09T13:43:16.218Z,4.45
2023-04-09T13:44:18.621Z,3.80
2023-04-09T13:45:23.974Z,5.43
2023-04-09T13:46:28.067Z,5.72
2023-04-09T13:47:30.729Z,3.80
2023-04-09T13:48:34.808Z,6.13
2023-04-09T13:49:37.287Z,24.70
2023-04-09T13:50:39.754Z,7.45
2023-04-09T13:51:42.130Z,4.28
2023-04-09T13:52:44.505Z,5.05
2023-04-09T13:53:48.289Z,4.28
2023-04-09T13:54:53.422Z,17.02
2023-04-09T13:55:56.379Z,17.60
2023-04-09T13:56:59.911Z,3.47
2023-04-09T13:58:04.804Z,3.35
2023-04-09T13:59:07.666Z,3.15
2023-04-09T14:00:10.497Z,2.88
2023-04-09T14:01:13.541Z,2.97
2023-04-09T14:02:17.971Z,2.75
2023-04-09T14:03:21.268Z,2.83
2023-04-09T14:04:24.052Z,2.35
2023-04-09T14:05:27.559Z,2.17
2023-04-09T14:06:30.105Z,1.88
2023-04-09T14:07:32.672Z,2.58
2023-04-09T14:08:35.875Z,2.80
2023-04-09T14:09:38.203Z,3.85
2023-04-09T14:10:40.804Z,2.13
2023-04-09T14:11:43.234Z,2.22
2023-04-09T14:12:46.069Z,1.75
2023-04-09T14:13:48.689Z,2.30
2023-04-09T14:14:51.686Z,2.70
2023-04-09T14:15:54.097Z,4.70
2023-04-09T14:16:56.794Z,1.40
2023-04-09T14:17:59.788Z,1.75
2023-04-09T14:19:02.386Z,2.35
2023-04-09T14:20:05.131Z,1.70
2023-04-09T14:21:10.254Z,1.45
2023-04-09T14:22:13.059Z,1.40
2023-04-09T14:23:15.777Z,1.80
2023-04-09T14:24:20.022Z,1.35
2023-04-09T14:25:22.520Z,1.17
2023-04-09T14:26:24.950Z,2.60
2023-04-09T14:27:27.371Z,2.08
2023-04-09T14:28:30.256Z,1.20
2023-04-09T14:29:33.020Z,2.13
2023-04-09T14:30:35.547Z,3.30
2023-04-09T14:31:38.014Z,3.80
2023-04-09T14:32:40.506Z,1.55
2023-04-09T14:33:42.986Z,2.30
2023-04-09T14:34:45.628Z,2.28
2023-04-09T14:35:48.184Z,2.17
2023-04-09T14:36:50.564Z,13.73
2023-04-09T14:37:52.976Z,2.15
2023-04-09T14:38:57.859Z,1.58
2023-04-09T14:40:01.019Z,3.15
2023-04-09T14:41:03.538Z,3.13
2023-04-09T14:42:08.547Z,2.00
2023-04-09T14:43:11.134Z,2.42
2023-04-09T14:44:13.538Z,1.75
2023-04-09T14:45:16.692Z,1.60
2023-04-09T14:46:22.351Z,1.98
2023-04-09T14:47:25.044Z,1.63
2023-04-09T14:48:27.465Z,2.90
2023-04-09T14:49:29.941Z,1.60
2023-04-09T14:50:33.907Z,2.08
2023-04-09T14:51:37.352Z,1.30
2023-04-09T14:52:40.285Z,2.60
2023-04-09T14:53:43.201Z,2.28
2023-04-09T14:54:47.165Z,2.53
2023-04-09T14:55:49.509Z,2.95
2023-04-09T14:56:52.035Z,2.67
2023-04-09T14:57:54.468Z,2.05